Time;durP1;ratioP1;P1;durP2;ratioP2;P2;SDS_P1;SDS_P2;PMS_P1;PMS_P2;Temp;Humidity;BMP_temperature;BMP_pressure;BME280_temperature;BME280_humidity;BME280_pressure;Samples;Min_cycle;Max_cycle;Signal;HPM_P1;HPM_P2
2023/10/14 00:01:53;;;;;;;9.93;2.80;;;23.10;72.20;;;;;;4982939;28;20307;-59
2023/10/14 00:04:25;;;;;;;6.45;2.60;;;23.10;72.30;;;;;;4981671;28;20453;-60
2023/10/14 00:06:52;;;;;;;5.25;2.40;;;23.10;72.60;;;;;;4983718;28;20235;-61
2023/10/14 00:09:21;;;;;;;6.75;2.70;;;23.20;73.20;;;;;;4984275;28;20713;-60
2023/10/14 00:11:54;;;;;;;8.48;2.95;;;23.20;73.90;;;;;;4982576;28;20215;-60
2023/10/14 00:14:22;;;;;;;7.20;2.85;;;23.20;76.60;;;;;;4981249;28;20209;-60
2023/10/14 00:16:51;;;;;;;4.88;2.67;;;23.20;76.70;;;;;;4983095;28;20215;-60
2023/10/14 00:19:19;;;;;;;6.18;2.72;;;23.30;76.30;;;;;;4984233;28;20224;-60
2023/10/14 00:21:48;;;;;;;4.70;2.45;;;23.30;75.90;;;;;;4982710;28;20378;-61
2023/10/14 00:24:25;;;;;;;6.30;2.95;;;23.20;75.80;;;;;;4981469;28;20207;-60
2023/10/14 00:26:53;;;;;;;5.45;2.63;;;23.20;76.00;;;;;;4983308;28;20683;-60
2023/10/14 00:29:20;;;;;;;3.70;2.55;;;23.10;76.20;;;;;;4983962;28;20693;-60
2023/10/14 00:31:48;;;;;;;6.25;2.80;;;23.10;76.40;;;;;;4982479;28;20215;-59
2023/10/14 00:34:15;;;;;;;5.32;2.90;;;23.10;76.40;;;;;;4980607;28;20232;-60
2023/10/14 00:36:42;;;;;;;5.95;2.63;;;23.20;76.60;;;;;;4981808;28;20208;-60
2023/10/14 00:39:13;;;;;;;4.85;2.53;;;23.20;76.90;;;;;;4984137;28;20287;-59
2023/10/14 00:41:40;;;;;;;7.53;2.78;;;23.10;77.00;;;;;;4983298;28;20269;-60
2023/10/14 00:44:08;;;;;;;5.95;2.90;;;23.10;77.00;;;;;;4980643;28;20692;-60
2023/10/14 00:46:35;;;;;;;9.73;2.88;;;23.00;77.20;;;;;;4980765;28;20220;-59
2023/10/14 00:49:04;;;;;;;8.02;3.10;;;23.00;78.20;;;;;;4983818;28;20281;-60
2023/10/14 00:51:33;;;;;;;4.80;2.90;;;22.90;80.20;;;;;;4984039;28;20207;-60
2023/10/14 00:54:02;;;;;;;4.18;2.67;;;22.90;81.90;;;;;;4980687;28;20282;-60
2023/10/14 00:56:30;;;;;;;5.82;3.05;;;22.90;82.80;;;;;;4980661;28;20674;-60
2023/10/14 00:58:59;;;;;;;7.03;3.20;;;23.00;83.90;;;;;;4983221;28;20219;-60
2023/10/14 01:01:32;;;;;;;4.20;2.75;;;23.00;84.40;;;;;;4984064;28;20207;-60
2023/10/14 01:04:09;;;;;;;5.95;2.80;;;23.00;84.70;;;;;;4980847;28;20228;-60
2023/10/14 01:06:53;;;;;;;5.15;3.10;;;23.00;84.90;;;;;;4980548;28;20239;-60
2023/10/14 01:09:22;;;;;;;5.20;3.10;;;23.00;85.80;;;;;;4983714;28;20223;-60
2023/10/14 01:11:49;;;;;;;8.15;3.28;;;22.80;88.40;;;;;;4981790;28;20218;-60
2023/10/14 01:14:23;;;;;;;4.22;3.25;;;22.90;89.20;;;;;;4980363;28;20255;-60
2023/10/14 01:16:52;;;;;;;9.77;6.95;;;22.80;89.70;;;;;;4982136;28;20263;-59
2023/10/14 01:19:22;;;;;;;11.23;3.97;;;22.80;90.10;;;;;;4983403;28;20775;-59
2023/10/14 01:21:51;;;;;;;6.90;3.28;;;22.80;90.40;;;;;;4982100;28;20214;-59
2023/10/14 01:24:21;;;;;;;7.90;3.63;;;22.70;91.50;;;;;;4980350;28;20206;-59
2023/10/14 01:26:53;;;;;;;5.70;3.50;;;22.70;92.50;;;;;;4981781;28;20247;-60
2023/10/14 01:29:30;;;;;;;6.50;3.38;;;22.70;93.30;;;;;;4983318;28;20239;-60
2023/10/14 01:32:10;;;;;;;4.97;3.92;;;22.60;94.20;;;;;;4980808;28;20236;-61
2023/10/14 01:34:42;;;;;;;7.57;3.50;;;22.50;95.00;;;;;;4980314;28;20208;-59
2023/10/14 01:37:15;;;;;;;4.60;3.58;;;22.50;95.50;;;;;;4983649;28;20204;-62
2023/10/14 01:39:49;;;;;;;5.82;3.60;;;22.50;96.10;;;;;;4982669;28;20259;-59
2023/10/14 01:42:16;;;;;;;7.57;4.10;;;22.50;96.50;;;;;;4980160;28;20670;-59
2023/10/14 01:44:44;;;;;;;7.05;4.22;;;22.40;97.40;;;;;;4981162;28;20233;-59
2023/10/14 01:47:11;;;;;;;9.02;4.05;;;22.30;97.90;;;;;;4985041;28;20290;-59
2023/10/14 01:49:38;;;;;;;6.30;4.53;;;22.30;98.20;;;;;;4986521;28;20277;-60
2023/10/14 01:52:10;;;;;;;5.95;3.95;;;22.30;99.10;;;;;;4983620;28;20584;-59
2023/10/14 01:54:39;;;;;;;8.35;3.95;;;22.20;99.70;;;;;;4983687;28;20212;-60
2023/10/14 01:57:15;;;;;;;6.18;4.15;;;22.10;99.90;;;;;;4987582;28;20242;-60
2023/10/14 01:59:42;;;;;;;6.63;4.78;;;22.00;99.90;;;;;;4986268;28;20223;-60
2023/10/14 02:02:09;;;;;;;7.00;4.22;;;22.00;99.90;;;;;;4983697;28;20291;-60
2023/10/14 02:04:37;;;;;;;4.88;4.20;;;22.00;99.90;;;;;;4983709;28;20212;-59
2023/10/14 02:07:18;;;;;;;6.85;4.47;;;21.90;99.90;;;;;;4987020;28;20322;-60
2023/10/14 02:09:44;;;;;;;11.30;4.00;;;21.90;99.90;;;;;;4985473;28;20242;-62
2023/10/14 02:12:12;;;;;;;11.50;4.47;;;21.80;99.90;;;;;;4983384;28;20599;-59
2023/10/14 02:14:44;;;;;;;9.50;4.53;;;21.70;99.90;;;;;;4983733;28;20221;-60
2023/10/14 02:17:11;;;;;;;7.57;4.00;;;21.70;99.90;;;;;;4986554;28;20215;-60
2023/10/14 02:19:38;;;;;;;6.43;4.25;;;21.60;99.90;;;;;;4986085;28;20262;-60
2023/10/14 02:22:09;;;;;;;9.13;4.38;;;21.60;99.90;;;;;;4983240;28;20221;-60
2023/10/14 02:24:36;;;;;;;9.05;4.40;;;21.50;99.90;;;;;;4983337;28;20741;-60
2023/10/14 02:27:10;;;;;;;6.60;4.50;;;21.50;99.90;;;;;;4983103;28;20255;-59
2023/10/14 02:29:42;;;;;;;8.32;4.50;;;21.50;99.90;;;;;;4982881;28;20286;-59
2023/10/14 02:32:11;;;;;;;7.40;4.25;;;21.50;99.90;;;;;;4982937;28;20240;-60
2023/10/14 02:34:38;;;;;;;7.93;4.13;;;21.40;99.90;;;;;;4983031;28;20745;-60
2023/10/14 02:37:06;;;;;;;6.35;4.03;;;21.50;99.90;;;;;;4986356;28;20204;-60
2023/10/14 02:39:34;;;;;;;6.85;4.18;;;21.50;99.90;;;;;;4986094;28;20227;-60
2023/10/14 02:42:06;;;;;;;7.45;4.00;;;21.50;99.90;;;;;;4983023;28;20204;-60
2023/10/14 02:44:43;;;;;;;7.53;4.05;;;21.50;99.90;;;;;;4982942;28;20655;-61
2023/10/14 02:47:12;;;;;;;9.70;4.28;;;21.40;99.90;;;;;;4982861;28;20203;-59
2023/10/14 02:49:40;;;;;;;8.73;4.65;;;21.40;99.90;;;;;;4982358;28;20235;-59
2023/10/14 02:52:11;;;;;;;8.88;4.50;;;21.40;99.90;;;;;;4986240;28;20254;-59
2023/10/14 02:54:42;;;;;;;6.07;4.35;;;21.50;99.90;;;;;;4986510;28;20262;-61
2023/10/14 02:57:23;;;;;;;5.15;4.10;;;21.50;99.90;;;;;;4982136;28;20223;-60
2023/10/14 02:59:50;;;;;;;6.13;4.60;;;21.50;99.90;;;;;;4983926;28;20232;-59
2023/10/14 03:02:25;;;;;;;7.85;4.10;;;21.60;99.90;;;;;;4985751;28;20230;-59
2023/10/14 03:05:08;;;;;;;10.63;3.95;;;21.50;99.90;;;;;;4983819;28;20672;-59
2023/10/14 03:07:44;;;;;;;6.78;4.53;;;21.50;99.90;;;;;;4982418;28;20208;-61
2023/10/14 03:10:12;;;;;;;6.50;4.00;;;21.60;99.90;;;;;;4982159;28;20224;-59
2023/10/14 03:12:40;;;;;;;5.97;3.92;;;21.60;99.90;;;;;;4982710;28;20291;-59
2023/10/14 03:15:18;;;;;;;6.60;4.28;;;21.60;99.90;;;;;;4985511;28;20601;-59
2023/10/14 03:17:52;;;;;;;7.85;3.65;;;21.60;99.90;;;;;;4984803;28;20265;-58
2023/10/14 03:23:03;;;;;;;5.13;3.85;;;21.60;99.90;;;;;;4992780;28;20208;-59
2023/10/14 03:25:30;;;;;;;9.60;4.47;;;21.60;99.90;;;;;;4993142;28;20243;-60
2023/10/14 03:28:00;;;;;;;7.20;4.38;;;21.60;99.90;;;;;;4992910;28;20222;-60
2023/10/14 03:30:28;;;;;;;8.95;4.47;;;21.60;99.90;;;;;;4993010;28;20227;-60
2023/10/14 03:32:56;;;;;;;8.02;3.95;;;21.60;99.90;;;;;;4993422;28;20211;-60
2023/10/14 03:35:27;;;;;;;7.25;3.85;;;21.60;99.90;;;;;;4993048;28;20211;-59
2023/10/14 03:37:59;;;;;;;6.13;3.90;;;21.60;99.90;;;;;;4992875;28;20323;-59
2023/10/14 03:40:51;;;;;;;7.53;4.13;;;21.60;99.90;;;;;;4992886;28;20230;-61
2023/10/14 03:43:18;;;;;;;7.13;4.38;;;21.60;99.90;;;;;;4993098;28;20654;-59
2023/10/14 03:45:48;;;;;;;5.90;4.07;;;21.60;99.90;;;;;;4993022;28;20549;-60
2023/10/14 03:48:20;;;;;;;8.57;4.30;;;21.60;99.90;;;;;;4992913;28;20207;-59
2023/10/14 03:50:47;;;;;;;9.25;4.10;;;21.60;99.90;;;;;;4992486;28;20258;-60
2023/10/14 03:53:14;;;;;;;10.00;4.18;;;21.50;99.90;;;;;;4993071;28;20207;-59
2023/10/14 03:55:41;;;;;;;8.13;4.32;;;21.50;99.90;;;;;;4992517;28;20203;-60
2023/10/14 03:58:09;;;;;;;9.90;3.97;;;21.50;99.90;;;;;;4992966;28;20199;-60
2023/10/14 04:00:38;;;;;;;7.00;4.05;;;21.60;99.90;;;;;;4992647;28;20705;-60
2023/10/14 04:03:11;;;;;;;10.73;4.40;;;21.70;99.90;;;;;;4992691;28;20569;-59
2023/10/14 04:05:44;;;;;;;11.15;4.70;;;21.70;99.90;;;;;;4992404;28;20215;-60
2023/10/14 04:08:13;;;;;;;8.60;4.45;;;21.70;99.90;;;;;;4992698;28;20258;-60
2023/10/14 04:10:45;;;;;;;8.35;3.90;;;21.70;99.90;;;;;;4991878;28;20236;-59
2023/10/14 04:13:14;;;;;;;6.53;4.07;;;21.70;99.90;;;;;;4992487;28;20204;-60
2023/10/14 04:15:49;;;;;;;7.22;4.40;;;21.70;99.90;;;;;;4992269;28;20330;-60
2023/10/14 04:18:24;;;;;;;8.02;4.07;;;21.70;99.90;;;;;;4991958;28;20235;-60
2023/10/14 04:21:11;;;;;;;7.90;4.85;;;21.70;99.90;;;;;;4992268;28;20296;-60
2023/10/14 04:23:48;;;;;;;6.97;4.50;;;21.70;99.90;;;;;;4992295;28;20207;-59
2023/10/14 04:26:21;;;;;;;9.00;4.50;;;21.70;99.90;;;;;;4992292;28;20199;-60
2023/10/14 04:28:53;;;;;;;8.43;4.85;;;21.70;99.90;;;;;;4991813;28;20242;-60
2023/10/14 04:31:26;;;;;;;8.32;4.70;;;21.80;99.90;;;;;;4991948;28;20589;-59
2023/10/14 04:33:54;;;;;;;6.05;4.00;;;21.80;99.90;;;;;;4991804;28;20700;-60
2023/10/14 04:39:14;;;;;;;7.88;3.30;;;21.30;99.90;;;;;;4991355;28;20223;-60
2023/10/14 04:41:55;;;;;;;7.13;3.55;;;21.00;99.90;;;;;;4992029;28;20211;-61
2023/10/14 04:44:23;;;;;;;7.55;3.47;;;20.60;99.90;;;;;;4991733;28;20216;-59
2023/10/14 04:47:01;;;;;;;4.32;3.00;;;20.40;99.90;;;;;;4992013;28;20582;-60
2023/10/14 04:49:36;;;;;;;6.95;3.10;;;20.20;99.90;;;;;;4991634;28;20233;-58
2023/10/14 04:52:06;;;;;;;8.68;3.13;;;19.90;99.90;;;;;;4991945;28;20358;-59
2023/10/14 04:54:35;;;;;;;5.03;2.92;;;19.70;99.90;;;;;;4992065;28;20203;-59
2023/10/14 04:57:19;;;;;;;8.57;2.97;;;19.50;99.90;;;;;;4991386;28;20203;-60
2023/10/14 04:59:51;;;;;;;7.75;2.92;;;19.40;99.90;;;;;;4991535;28;20227;-59
2023/10/14 05:02:20;;;;;;;6.15;2.92;;;19.20;99.90;;;;;;4991633;28;20733;-59
2023/10/14 05:04:48;;;;;;;7.15;3.45;;;19.00;99.90;;;;;;4991507;28;20214;-61
2023/10/14 05:07:16;;;;;;;5.55;3.00;;;18.90;99.90;;;;;;4991599;28;20234;-60
2023/10/14 05:09:49;;;;;;;5.05;2.60;;;18.70;99.90;;;;;;4991187;28;20614;-60
2023/10/14 05:12:24;;;;;;;5.78;2.60;;;18.50;99.90;;;;;;4991228;28;20689;-59
2023/10/14 05:14:51;;;;;;;5.78;2.90;;;18.40;99.90;;;;;;4991586;28;20211;-60
2023/10/14 05:17:19;;;;;;;4.55;2.80;;;18.40;99.90;;;;;;4991640;28;20203;-60
2023/10/14 05:19:47;;;;;;;4.82;2.65;;;18.40;99.90;;;;;;4990919;28;20242;-60
2023/10/14 05:22:19;;;;;;;6.95;2.70;;;18.40;99.90;;;;;;4995029;28;20724;-59
2023/10/14 05:24:49;;;;;;;5.75;2.85;;;18.40;99.90;;;;;;4995731;28;20212;-60
2023/10/14 05:27:17;;;;;;;4.75;2.97;;;18.50;99.90;;;;;;4995263;28;20584;-59
2023/10/14 05:29:50;;;;;;;5.18;2.95;;;18.60;99.90;;;;;;4994691;28;20290;-60
2023/10/14 05:32:18;;;;;;;9.07;2.83;;;18.50;99.90;;;;;;4995335;28;20274;-59
2023/10/14 05:34:45;;;;;;;4.82;2.83;;;18.50;99.90;;;;;;4995173;28;20215;-59
2023/10/14 05:37:13;;;;;;;7.47;4.22;;;18.50;99.90;;;;;;4995171;28;20234;-60
2023/10/14 05:39:42;;;;;;;5.95;3.60;;;18.60;99.90;;;;;;4994842;28;20254;-61
2023/10/14 05:42:16;;;;;;;6.47;3.92;;;18.60;99.90;;;;;;4995338;28;20210;-61
2023/10/14 05:44:47;;;;;;;6.32;3.85;;;18.60;99.90;;;;;;4995196;28;20239;-60
2023/10/14 05:47:14;;;;;;;9.75;7.25;;;18.70;99.90;;;;;;4994904;28;20587;-60
2023/10/14 05:49:41;;;;;;;7.20;3.58;;;18.70;99.90;;;;;;4994732;28;20235;-60
2023/10/14 05:52:08;;;;;;;11.15;6.43;;;18.80;99.90;;;;;;4994819;28;20199;-60
2023/10/14 05:54:35;;;;;;;8.88;3.38;;;18.70;99.90;;;;;;4994630;28;20207;-58
2023/10/14 05:57:04;;;;;;;4.32;2.88;;;18.70;99.90;;;;;;4994805;28;20234;-59
2023/10/14 05:59:32;;;;;;;12.85;3.97;;;18.70;99.90;;;;;;4994681;28;20255;-60
2023/10/14 06:01:58;;;;;;;6.45;2.97;;;18.70;99.90;;;;;;4994652;28;20211;-61
2023/10/14 06:04:25;;;;;;;5.03;3.45;;;18.70;99.90;;;;;;4994787;28;20558;-59
2023/10/14 06:06:52;;;;;;;6.60;3.45;;;18.60;99.90;;;;;;4994360;28;20271;-60
2023/10/14 06:09:18;;;;;;;7.35;3.40;;;18.70;99.90;;;;;;4994477;28;20480;-60
2023/10/14 06:11:46;;;;;;;6.25;3.38;;;18.70;99.90;;;;;;4994551;28;20499;-62
2023/10/14 06:14:14;;;;;;;6.40;3.97;;;18.80;99.90;;;;;;4994306;28;20674;-61
2023/10/14 06:16:41;;;;;;;6.88;3.35;;;18.90;99.90;;;;;;4994352;28;20204;-61
2023/10/14 06:19:12;;;;;;;4.20;3.15;;;18.90;99.90;;;;;;4993802;28;20239;-59
2023/10/14 06:21:39;;;;;;;8.02;3.03;;;19.00;99.90;;;;;;4994297;28;20662;-60
2023/10/14 06:24:10;;;;;;;7.55;3.45;;;19.00;99.90;;;;;;4994298;28;20207;-59
2023/10/14 06:26:37;;;;;;;6.43;3.10;;;19.10;99.90;;;;;;4994434;28;20592;-61
2023/10/14 06:29:05;;;;;;;5.57;2.97;;;19.10;99.90;;;;;;4994248;28;20231;-58
2023/10/14 06:31:37;;;;;;;5.57;2.90;;;19.20;99.90;;;;;;4994284;28;20674;-60
2023/10/14 06:34:08;;;;;;;6.00;2.83;;;19.20;99.90;;;;;;4993735;28;20219;-58
2023/10/14 06:36:35;;;;;;;6.47;2.92;;;19.30;99.90;;;;;;4994373;28;20207;-60
2023/10/14 06:39:13;;;;;;;6.35;2.55;;;19.30;99.90;;;;;;4993761;28;20227;-58
2023/10/14 06:41:43;;;;;;;3.72;2.80;;;19.40;99.90;;;;;;4994542;28;20214;-59
2023/10/14 06:44:14;;;;;;;5.15;2.90;;;19.40;99.90;;;;;;4994005;28;20212;-59
2023/10/14 06:46:44;;;;;;;5.47;2.17;;;19.50;99.90;;;;;;4994029;28;20212;-59
2023/10/14 06:49:13;;;;;;;7.47;2.70;;;19.50;99.90;;;;;;4985970;28;20227;-60
2023/10/14 06:51:42;;;;;;;7.30;4.32;;;19.50;99.90;;;;;;4993447;28;20733;-60
2023/10/14 06:54:09;;;;;;;8.52;3.22;;;19.50;99.90;;;;;;4993871;28;20223;-60
2023/10/14 06:56:36;;;;;;;5.88;2.90;;;19.60;99.90;;;;;;4993679;28;20204;-60
2023/10/14 06:59:04;;;;;;;5.13;2.50;;;19.60;99.90;;;;;;4993519;28;20242;-60
2023/10/14 07:01:33;;;;;;;6.32;2.53;;;19.60;99.90;;;;;;4993546;28;20607;-60
2023/10/14 07:04:01;;;;;;;4.50;2.40;;;19.60;99.90;;;;;;4993534;28;20235;-59
2023/10/14 07:06:28;;;;;;;3.97;2.20;;;19.60;99.90;;;;;;4993530;28;20214;-60
2023/10/14 07:08:55;;;;;;;4.28;2.05;;;19.60;99.90;;;;;;4993303;28;20673;-60
2023/10/14 07:11:22;;;;;;;3.05;1.63;;;19.70;99.90;;;;;;4993320;28;20289;-59
2023/10/14 07:13:48;;;;;;;5.53;2.33;;;19.70;99.90;;;;;;4993745;28;20582;-60
2023/10/14 07:16:15;;;;;;;6.07;1.90;;;19.70;99.90;;;;;;4993704;28;20207;-60
2023/10/14 07:18:42;;;;;;;3.42;1.88;;;19.80;99.90;;;;;;4993182;28;20211;-60
2023/10/14 07:21:13;;;;;;;5.50;2.00;;;19.90;99.90;;;;;;4993487;28;20208;-60
2023/10/14 07:23:40;;;;;;;2.80;1.85;;;20.00;99.90;;;;;;4993328;28;20211;-60
2023/10/14 07:26:09;;;;;;;3.85;1.90;;;20.10;99.90;;;;;;4993545;28;20601;-59
2023/10/14 07:28:36;;;;;;;8.38;2.20;;;20.30;99.90;;;;;;4993274;28;20207;-60
2023/10/14 07:31:03;;;;;;;2.47;1.67;;;20.50;99.90;;;;;;4993145;28;20230;-60
2023/10/14 07:33:30;;;;;;;4.43;1.65;;;20.70;99.90;;;;;;4993286;28;20215;-60
2023/10/14 07:35:59;;;;;;;5.95;1.98;;;20.80;99.90;;;;;;4992819;28;20230;-61
2023/10/14 07:38:26;;;;;;;3.13;1.67;;;21.00;99.90;;;;;;4992696;28;20199;-59
2023/10/14 07:40:58;;;;;;;3.03;1.77;;;21.20;99.90;;;;;;4993024;28;20673;-60
2023/10/14 07:43:26;;;;;;;4.88;1.90;;;21.50;99.90;;;;;;4992769;28;20236;-62
2023/10/14 07:45:53;;;;;;;5.15;1.63;;;21.80;99.90;;;;;;4992148;28;20208;-60
2023/10/14 07:48:21;;;;;;;3.05;1.30;;;22.00;99.90;;;;;;4992864;28;20200;-60
2023/10/14 07:50:49;;;;;;;4.05;1.65;;;22.00;99.90;;;;;;4992385;28;20262;-60
2023/10/14 07:53:22;;;;;;;3.42;1.60;;;22.10;99.90;;;;;;4992722;28;20206;-61
2023/10/14 07:55:52;;;;;;;2.28;1.20;;;22.10;99.90;;;;;;4992530;28;20572;-60
2023/10/14 07:58:23;;;;;;;3.08;1.48;;;22.10;99.90;;;;;;4992492;28;20212;-60
2023/10/14 08:00:50;;;;;;;5.53;1.40;;;22.20;99.90;;;;;;4992619;28;20262;-59
2023/10/14 08:03:18;;;;;;;2.78;1.42;;;22.30;99.90;;;;;;4992259;28;20208;-60
2023/10/14 08:05:48;;;;;;;4.30;1.65;;;22.40;99.90;;;;;;4992513;28;20231;-59
2023/10/14 08:08:15;;;;;;;2.65;1.60;;;22.60;99.90;;;;;;4984494;28;20211;-60
2023/10/14 08:10:43;;;;;;;3.85;1.33;;;22.90;99.90;;;;;;4992241;28;20227;-59
2023/10/14 08:13:11;;;;;;;2.88;1.50;;;23.20;99.90;;;;;;4992199;28;20211;-60
2023/10/14 08:15:38;;;;;;;3.38;1.48;;;23.30;99.90;;;;;;4992135;28;20218;-60
2023/10/14 08:18:05;;;;;;;3.80;1.60;;;23.30;99.90;;;;;;4991625;28;20211;-60
2023/10/14 08:20:32;;;;;;;3.75;1.60;;;23.20;99.90;;;;;;4991971;28;20258;-60
2023/10/14 08:22:59;;;;;;;4.22;1.27;;;23.00;99.90;;;;;;4991990;28;20592;-61
2023/10/14 08:25:26;;;;;;;3.40;1.10;;;22.90;99.90;;;;;;4991985;28;20594;-61
2023/10/14 08:27:54;;;;;;;3.38;1.25;;;22.80;99.90;;;;;;4991611;28;20215;-60
2023/10/14 08:30:24;;;;;;;2.00;1.55;;;22.70;99.90;;;;;;4991610;28;20223;-60
2023/10/14 08:32:52;;;;;;;4.72;1.48;;;22.70;99.90;;;;;;4992002;28;20207;-60
2023/10/14 08:35:20;;;;;;;3.85;1.80;;;22.70;99.90;;;;;;4991997;28;20246;-60
2023/10/14 08:37:48;;;;;;;3.65;1.65;;;22.70;99.90;;;;;;4991581;28;20258;-58
2023/10/14 08:40:19;;;;;;;3.80;1.10;;;22.70;99.90;;;;;;4983616;28;20717;-60
2023/10/14 08:42:51;;;;;;;4.63;1.40;;;22.80;99.90;;;;;;4991758;28;20208;-61
2023/10/14 08:45:19;;;;;;;2.97;1.70;;;23.00;99.90;;;;;;4984578;28;20212;-59
2023/10/14 08:47:50;;;;;;;2.80;1.30;;;23.20;99.90;;;;;;4991959;28;20480;-59
2023/10/14 08:50:19;;;;;;;3.80;1.55;;;23.30;99.90;;;;;;4991924;28;20238;-61
2023/10/14 08:52:46;;;;;;;4.50;1.75;;;23.40;99.90;;;;;;4991881;28;20234;-63
2023/10/14 08:55:15;;;;;;;5.03;2.30;;;23.40;99.90;;;;;;4991560;28;20200;-59
2023/10/14 08:57:44;;;;;;;2.70;1.20;;;23.50;99.90;;;;;;4991781;28;20261;-60
2023/10/14 09:00:12;;;;;;;3.67;1.10;;;23.60;99.90;;;;;;4991753;28;20235;-57
2023/10/14 09:02:39;;;;;;;2.45;1.40;;;23.60;99.90;;;;;;4992016;28;20207;-59
2023/10/14 09:05:11;;;;;;;3.28;1.63;;;23.70;99.90;;;;;;4991560;28;20689;-60
2023/10/14 09:07:39;;;;;;;3.60;1.58;;;23.40;99.90;;;;;;4991933;28;20212;-58
2023/10/14 09:10:07;;;;;;;3.97;1.88;;;23.10;99.90;;;;;;4991678;28;20660;-60
2023/10/14 09:12:34;;;;;;;5.25;1.10;;;22.80;99.90;;;;;;4991915;28;20252;-59
2023/10/14 09:15:01;;;;;;;3.42;1.00;;;22.30;99.90;;;;;;4991830;28;20207;-61
2023/10/14 09:17:29;;;;;;;4.80;1.52;;;21.50;99.90;;;;;;4991879;28;20207;-60
2023/10/14 09:19:56;;;;;;;3.67;1.27;;;21.00;99.90;;;;;;5013770;23;20308;-64
2023/10/14 09:22:26;;;;;;;2.28;0.90;;;20.60;99.90;;;;;;5010890;28;20225;-64
2023/10/14 09:24:54;;;;;;;4.20;0.50;;;20.30;99.90;;;;;;5010966;28;20309;-64
2023/10/14 09:27:20;;;;;;;1.15;0.40;;;19.80;99.90;;;;;;5011034;28;20207;-67
2023/10/14 09:29:48;;;;;;;1.48;0.60;;;19.40;99.90;;;;;;5010918;28;20248;-64
2023/10/14 09:32:15;;;;;;;0.77;0.35;;;19.10;99.90;;;;;;5011070;28;20219;-65
2023/10/14 09:34:42;;;;;;;0.47;0.40;;;18.90;99.90;;;;;;5010826;28;20203;-65
2023/10/14 09:37:12;;;;;;;0.93;0.40;;;18.90;99.90;;;;;;5010308;28;20235;-65
2023/10/14 09:39:42;;;;;;;0.82;0.35;;;18.90;99.90;;;;;;5010447;28;20616;-65
2023/10/14 09:42:11;;;;;;;1.23;0.30;;;18.80;99.90;;;;;;5010615;28;20703;-65
2023/10/14 09:44:42;;;;;;;1.30;0.50;;;18.80;99.90;;;;;;5010890;28;20229;-64
2023/10/14 09:47:12;;;;;;;0.50;0.40;;;18.70;99.90;;;;;;5010657;28;20203;-65
2023/10/14 09:49:39;;;;;;;1.80;1.30;;;18.80;99.90;;;;;;5010460;28;20288;-65
2023/10/14 09:52:07;;;;;;;1.50;0.60;;;18.80;99.90;;;;;;5010704;28;20231;-65
2023/10/14 09:54:35;;;;;;;1.50;0.50;;;19.00;99.90;;;;;;5010950;28;20638;-67
2023/10/14 09:57:03;;;;;;;0.75;0.47;;;19.20;99.90;;;;;;5010789;28;20265;-68
2023/10/14 09:59:33;;;;;;;0.68;0.50;;;19.50;99.90;;;;;;5010888;28;20227;-66
2023/10/14 10:02:00;;;;;;;0.55;0.50;;;19.70;99.90;;;;;;5010608;28;20253;-65
2023/10/14 10:04:31;;;;;;;0.93;0.60;;;19.90;99.90;;;;;;5011832;28;20203;-65
2023/10/14 10:07:10;;;;;;;1.35;0.50;;;20.20;99.90;;;;;;5010497;28;20229;-65
2023/10/14 10:10:10;;;;;;;2.13;0.60;;;20.20;99.90;;;;;;5013835;28;20313;-64
2023/10/14 10:12:41;;;;;;;1.80;0.60;;;20.20;99.90;;;;;;5008848;28;20299;-64
2023/10/14 10:15:09;;;;;;;1.17;0.73;;;20.20;99.90;;;;;;5011266;28;20203;-66
2023/10/14 10:17:38;;;;;;;0.95;0.60;;;20.40;99.90;;;;;;5013433;28;20656;-65
2023/10/14 10:20:10;;;;;;;1.33;0.70;;;20.60;99.90;;;;;;5013296;28;20776;-64
2023/10/14 10:22:43;;;;;;;1.08;0.88;;;20.90;99.90;;;;;;5014097;28;20221;-63
2023/10/14 10:25:14;;;;;;;1.65;0.77;;;21.00;99.90;;;;;;5013587;28;20242;-66
2023/10/14 10:27:43;;;;;;;1.05;0.50;;;21.30;99.90;;;;;;5014260;28;20261;-63
2023/10/14 10:30:13;;;;;;;1.17;0.80;;;21.40;99.90;;;;;;5014112;28;20257;-65
2023/10/14 10:32:46;;;;;;;0.90;0.70;;;21.50;99.90;;;;;;5014030;28;20238;-65
2023/10/14 10:35:17;;;;;;;1.45;0.73;;;21.50;99.90;;;;;;5013509;28;20207;-65
2023/10/14 10:37:52;;;;;;;1.08;0.57;;;21.60;99.90;;;;;;5013127;28;20203;-65
2023/10/14 10:40:22;;;;;;;0.70;0.70;;;21.80;99.90;;;;;;5005389;28;20245;-64
2023/10/14 10:42:54;;;;;;;1.50;0.82;;;22.00;99.90;;;;;;5013489;28;20677;-63
2023/10/14 10:45:22;;;;;;;0.85;0.60;;;22.10;99.90;;;;;;5005820;28;20472;-64
2023/10/14 10:47:54;;;;;;;1.80;1.05;;;22.10;99.90;;;;;;5013714;28;20210;-63
2023/10/14 10:50:22;;;;;;;1.10;1.00;;;21.90;99.90;;;;;;5013161;28;20250;-64
2023/10/14 10:53:21;;;;;;;4.30;3.45;;;21.80;99.90;;;;;;5013210;28;20293;-64
2023/10/14 10:55:51;;;;;;;2.22;1.08;;;21.70;99.90;;;;;;5009114;28;20221;-64
2023/10/14 10:58:21;;;;;;;1.83;1.02;;;21.60;99.90;;;;;;5004889;28;20203;-63
2023/10/14 11:00:49;;;;;;;2.38;0.80;;;21.60;99.90;;;;;;5013333;28;20281;-65
2023/10/14 11:03:17;;;;;;;2.30;0.60;;;21.60;99.90;;;;;;5013136;28;20219;-62
2023/10/14 11:05:45;;;;;;;1.88;1.00;;;21.60;99.90;;;;;;5013040;28;20206;-64
2023/10/14 11:08:14;;;;;;;1.13;0.90;;;21.60;99.90;;;;;;5012722;28;20211;-64
2023/10/14 11:10:42;;;;;;;0.77;0.63;;;21.50;99.90;;;;;;5013003;28;20251;-63
2023/10/14 11:13:11;;;;;;;3.83;2.15;;;21.40;99.90;;;;;;5012728;28;20227;-63
2023/10/14 11:15:40;;;;;;;1.98;0.73;;;21.40;99.90;;;;;;5013154;28;20252;-63
2023/10/14 11:18:09;;;;;;;4.32;1.52;;;21.30;99.90;;;;;;5012598;28;20718;-63
2023/10/14 11:20:38;;;;;;;1.20;0.90;;;21.20;99.90;;;;;;5012580;28;20318;-65
2023/10/14 11:23:08;;;;;;;3.20;1.73;;;21.00;99.90;;;;;;5013122;28;20211;-65
2023/10/14 11:25:37;;;;;;;1.27;0.73;;;20.80;99.90;;;;;;5012669;28;20219;-64
2023/10/14 11:28:05;;;;;;;0.55;0.52;;;20.60;99.90;;;;;;5012556;28;20207;-63
2023/10/14 11:30:32;;;;;;;2.67;1.15;;;20.30;99.90;;;;;;5012789;28;20315;-64
2023/10/14 11:33:02;;;;;;;1.05;0.80;;;20.00;99.90;;;;;;5012621;28;20273;-64
2023/10/14 11:35:29;;;;;;;1.45;0.73;;;19.70;99.90;;;;;;5012950;28;20747;-64
2023/10/14 11:38:00;;;;;;;0.88;0.82;;;19.50;99.90;;;;;;5013336;28;20211;-63
2023/10/14 11:40:33;;;;;;;1.17;0.60;;;19.30;99.90;;;;;;5013060;28;20230;-63
2023/10/14 11:43:00;;;;;;;1.58;0.80;;;19.20;99.90;;;;;;5013184;28;20207;-63
2023/10/14 11:45:27;;;;;;;10.40;5.78;;;19.20;99.90;;;;;;5013041;28;20665;-63
2023/10/14 11:47:54;;;;;;;3.72;1.75;;;19.00;99.90;;;;;;5012687;28;20207;-63
2023/10/14 11:50:23;;;;;;;1.42;0.90;;;19.00;99.90;;;;;;5012678;28;20226;-65
2023/10/14 11:52:52;;;;;;;5.50;1.73;;;18.90;99.90;;;;;;5012735;28;20223;-62
2023/10/14 11:55:20;;;;;;;2.42;1.63;;;19.00;99.90;;;;;;5004676;28;20294;-63
2023/10/14 11:57:48;;;;;;;2.30;0.90;;;19.10;99.90;;;;;;5012864;28;20211;-63
2023/10/14 12:00:17;;;;;;;2.03;0.70;;;19.10;99.90;;;;;;5011896;28;20600;-63
2023/10/14 12:02:45;;;;;;;0.77;0.40;;;19.10;99.90;;;;;;5012298;28;20637;-64
2023/10/14 12:05:13;;;;;;;2.05;0.70;;;19.00;99.90;;;;;;5012132;28;20214;-63
2023/10/14 12:07:41;;;;;;;1.15;0.70;;;18.80;99.90;;;;;;5011881;28;20614;-63
2023/10/14 12:10:08;;;;;;;1.10;0.50;;;18.70;99.90;;;;;;5011758;28;20226;-63
2023/10/14 12:12:37;;;;;;;0.77;0.43;;;18.50;99.90;;;;;;5011973;28;20218;-63
2023/10/14 12:15:05;;;;;;;2.65;0.50;;;18.40;99.90;;;;;;5011829;28;20238;-63
2023/10/14 12:17:33;;;;;;;3.00;0.75;;;18.10;99.90;;;;;;5011578;28;20248;-63
2023/10/14 12:20:04;;;;;;;1.00;0.57;;;18.00;99.90;;;;;;5011351;28;20321;-64
2023/10/14 12:22:31;;;;;;;1.10;0.70;;;18.00;99.90;;;;;;5011651;28;20678;-64
2023/10/14 12:24:59;;;;;;;1.17;0.40;;;17.90;99.90;;;;;;5011821;28;20211;-63
2023/10/14 12:27:26;;;;;;;1.27;0.60;;;17.90;99.90;;;;;;5011672;28;20595;-63
2023/10/14 12:29:54;;;;;;;1.33;0.43;;;17.80;99.90;;;;;;5010927;28;20253;-63
2023/10/14 12:32:20;;;;;;;1.60;0.90;;;17.80;99.90;;;;;;5003460;28;20222;-63
2023/10/14 12:34:49;;;;;;;1.35;0.90;;;17.80;99.90;;;;;;5011948;28;20210;-62
2023/10/14 12:37:18;;;;;;;1.00;0.73;;;17.70;99.90;;;;;;5011366;28;20649;-64
2023/10/14 12:39:49;;;;;;;0.50;0.30;;;17.80;99.90;;;;;;5011111;28;20234;-63
2023/10/14 12:42:23;;;;;;;3.13;0.73;;;17.80;99.90;;;;;;5011165;28;20199;-63
2023/10/14 12:44:50;;;;;;;0.90;0.60;;;17.90;99.90;;;;;;5011396;28;20207;-64
2023/10/14 12:47:20;;;;;;;1.50;0.63;;;18.00;99.90;;;;;;5011234;28;20222;-63
2023/10/14 12:49:48;;;;;;;2.38;0.73;;;18.10;99.90;;;;;;5011140;28;20281;-63
2023/10/14 12:52:19;;;;;;;0.80;0.60;;;18.20;99.90;;;;;;5010873;28;20668;-64
2023/10/14 12:54:51;;;;;;;0.80;0.60;;;18.20;99.90;;;;;;5011141;28;20211;-63
2023/10/14 12:57:19;;;;;;;1.23;0.80;;;18.40;99.90;;;;;;5011103;28;20250;-63
2023/10/14 12:59:46;;;;;;;3.50;0.77;;;18.40;99.90;;;;;;5010855;28;20233;-63
2023/10/14 13:02:17;;;;;;;2.50;1.83;;;18.50;99.90;;;;;;5010892;28;20206;-63
2023/10/14 13:04:44;;;;;;;3.53;2.30;;;18.40;99.90;;;;;;5011220;28;20218;-62